createdAt,value
2017-11-29T00:00:42.444Z,6.60
2017-11-29T00:01:42.459Z,6.10
2017-11-29T00:02:42.474Z,6.40
2017-11-29T00:03:42.487Z,6.50
2017-11-29T00:04:42.500Z,6.50
2017-11-29T00:05:42.518Z,6.00
2017-11-29T00:06:42.528Z,6.40
2017-11-29T00:07:42.545Z,6.00
2017-11-29T00:08:42.557Z,6.70
2017-11-29T00:09:42.570Z,6.80
2017-11-29T00:10:42.582Z,5.80
2017-11-29T00:11:42.596Z,6.50
2017-11-29T00:12:42.613Z,6.20
2017-11-29T00:13:42.630Z,5.80
2017-11-29T00:14:42.645Z,5.90
2017-11-29T00:15:42.654Z,5.80
2017-11-29T00:16:42.679Z,6.30
2017-11-29T00:17:42.684Z,5.40
2017-11-29T00:18:42.696Z,5.40
2017-11-29T00:19:42.718Z,5.70
2017-11-29T00:20:42.722Z,5.90
2017-11-29T00:21:42.734Z,5.90
2017-11-29T00:22:42.751Z,5.80
2017-11-29T00:23:42.764Z,5.60
2017-11-29T00:24:42.779Z,5.90
2017-11-29T00:25:42.793Z,6.10
2017-11-29T00:26:42.809Z,5.60
2017-11-29T00:27:42.829Z,5.40
2017-11-29T00:28:42.839Z,5.90
2017-11-29T00:29:42.850Z,5.20
2017-11-29T00:30:42.863Z,5.40
2017-11-29T00:31:42.878Z,6.00
2017-11-29T00:32:42.895Z,5.50
2017-11-29T00:33:42.906Z,5.80
2017-11-29T00:34:42.922Z,5.90
2017-11-29T00:35:42.939Z,5.90
2017-11-29T00:36:42.949Z,5.70
2017-11-29T00:37:42.962Z,5.40
2017-11-29T00:38:42.975Z,5.80
2017-11-29T00:39:42.991Z,5.80
2017-11-29T00:40:43.005Z,5.90
2017-11-29T00:41:43.018Z,5.40
2017-11-29T00:42:43.044Z,5.30
2017-11-29T00:43:43.058Z,6.00
2017-11-29T00:44:43.061Z,6.00
2017-11-29T00:45:43.078Z,5.60
2017-11-29T00:46:43.100Z,6.20
2017-11-29T00:47:43.115Z,6.00
2017-11-29T00:48:43.126Z,5.90
2017-11-29T00:49:43.130Z,6.20
2017-11-29T00:50:43.143Z,5.60
2017-11-29T00:51:43.161Z,5.50
2017-11-29T00:52:43.173Z,5.80
2017-11-29T00:53:43.187Z,5.70
2017-11-29T00:54:43.198Z,5.80
2017-11-29T00:55:43.219Z,5.80
2017-11-29T00:56:43.228Z,6.00
2017-11-29T00:57:43.242Z,5.80
2017-11-29T00:58:43.258Z,5.90
2017-11-29T00:59:43.269Z,6.20
2017-11-29T01:00:43.284Z,5.40
2017-11-29T01:01:43.298Z,6.10
2017-11-29T01:02:43.311Z,6.60
2017-11-29T01:03:43.327Z,6.20
2017-11-29T01:04:43.339Z,6.00
2017-11-29T01:05:43.352Z,6.20
2017-11-29T01:06:43.367Z,6.10
2017-11-29T01:07:43.382Z,6.10
2017-11-29T01:08:43.408Z,6.00
2017-11-29T01:09:43.408Z,6.40
2017-11-29T01:10:43.422Z,6.00
2017-11-29T01:11:43.436Z,6.40
2017-11-29T01:12:43.452Z,5.90
2017-11-29T01:13:43.463Z,6.60
2017-11-29T01:14:43.484Z,5.90
2017-11-29T01:15:43.491Z,5.60
2017-11-29T01:16:43.505Z,6.70
2017-11-29T01:17:43.518Z,6.50
2017-11-29T01:18:43.529Z,5.90
2017-11-29T01:19:43.546Z,6.60
2017-11-29T01:20:43.568Z,6.60
2017-11-29T01:21:43.573Z,6.50
2017-11-29T01:22:43.589Z,6.10
2017-11-29T01:23:43.599Z,6.70
2017-11-29T01:24:43.614Z,6.00
2017-11-29T01:25:43.628Z,6.20
2017-11-29T01:26:43.641Z,6.70
2017-11-29T01:27:43.656Z,7.20
2017-11-29T01:28:43.880Z,6.70
2017-11-29T01:29:43.690Z,7.40
2017-11-29T01:30:43.700Z,6.80
2017-11-29T01:31:43.714Z,6.20
2017-11-29T01:32:43.726Z,5.90
2017-11-29T01:33:43.744Z,6.10
2017-11-29T01:34:43.751Z,6.50
2017-11-29T01:35:43.770Z,6.20
2017-11-29T01:36:43.780Z,6.30
2017-11-29T01:37:43.797Z,5.60
2017-11-29T01:38:43.805Z,6.50
2017-11-29T01:39:43.823Z,6.00
2017-11-29T01:40:43.861Z,6.00
2017-11-29T01:41:43.847Z,5.70
2017-11-29T01:42:43.861Z,6.50
2017-11-29T01:43:43.873Z,6.70
2017-11-29T01:44:43.889Z,6.00
2017-11-29T01:45:43.904Z,6.60
2017-11-29T01:46:43.914Z,5.90
2017-11-29T01:47:43.928Z,5.50
2017-11-29T01:48:43.941Z,6.10
2017-11-29T01:49:43.998Z,6.30
2017-11-29T01:50:43.974Z,6.70
2017-11-29T01:51:43.983Z,6.20
2017-11-29T01:52:43.997Z,6.50
2017-11-29T01:53:44.012Z,6.60
2017-11-29T01:54:44.023Z,6.40
2017-11-29T01:55:44.036Z,6.50
2017-11-29T01:56:44.052Z,6.50
2017-11-29T01:57:44.064Z,6.20
2017-11-29T01:58:44.076Z,6.30
2017-11-29T01:59:44.089Z,6.50
2017-11-29T02:00:44.108Z,6.10
2017-11-29T02:01:44.119Z,6.30
2017-11-29T02:02:44.131Z,6.30
2017-11-29T02:03:44.143Z,6.10
2017-11-29T02:04:44.159Z,5.90
2017-11-29T02:05:44.173Z,6.60
2017-11-29T02:06:44.185Z,6.30
2017-11-29T02:07:44.201Z,6.20
2017-11-29T02:08:44.211Z,6.30
2017-11-29T02:09:44.226Z,5.90
2017-11-29T02:10:44.239Z,6.70
2017-11-29T02:11:44.251Z,6.30
2017-11-29T02:12:44.265Z,6.40
2017-11-29T02:13:44.285Z,6.50
2017-11-29T02:14:44.300Z,6.00
2017-11-29T02:15:44.308Z,6.50
2017-11-29T02:16:44.321Z,6.40
2017-11-29T02:17:44.334Z,6.50
2017-11-29T02:18:44.352Z,6.00
2017-11-29T02:19:44.361Z,6.20
2017-11-29T02:20:44.377Z,7.20
2017-11-29T02:21:44.392Z,6.00
2017-11-29T02:22:44.402Z,6.90
2017-11-29T02:23:44.415Z,6.10
2017-11-29T02:24:44.430Z,6.80
2017-11-29T02:25:44.444Z,6.70
2017-11-29T02:26:44.459Z,6.80
2017-11-29T02:27:44.470Z,6.60
2017-11-29T02:28:44.488Z,6.40
2017-11-29T02:29:44.501Z,7.00
2017-11-29T02:30:44.512Z,7.20
2017-11-29T02:31:44.526Z,6.40
2017-11-29T02:32:44.542Z,7.10
2017-11-29T02:33:44.560Z,7.30
2017-11-29T02:34:44.566Z,7.50
2017-11-29T02:35:44.582Z,6.90
2017-11-29T02:36:44.594Z,7.40
2017-11-29T02:37:44.611Z,7.50
2017-11-29T02:38:44.624Z,7.30
2017-11-29T02:39:44.638Z,8.00
2017-11-29T02:40:44.652Z,7.80
2017-11-29T02:41:44.662Z,8.20
2017-11-29T02:42:44.674Z,9.20
2017-11-29T02:43:44.689Z,8.50
2017-11-29T02:44:44.742Z,8.60
2017-11-29T02:45:44.722Z,8.90
2017-11-29T02:46:44.731Z,9.10
2017-11-29T02:47:44.748Z,9.30
2017-11-29T02:48:44.757Z,8.50
2017-11-29T02:49:44.772Z,8.10
2017-11-29T02:50:44.782Z,8.70
2017-11-29T02:51:44.797Z,8.20
2017-11-29T02:52:44.811Z,8.90
2017-11-29T02:53:44.825Z,9.40
2017-11-29T02:54:44.836Z,8.90
2017-11-29T02:55:44.849Z,8.60
2017-11-29T02:56:44.860Z,9.40
2017-11-29T02:57:44.897Z,9.60
2017-11-29T02:58:44.888Z,9.80
2017-11-29T02:59:44.898Z,9.20
2017-11-29T03:00:44.914Z,10.10
2017-11-29T03:01:44.926Z,9.90
2017-11-29T03:02:44.940Z,9.10
2017-11-29T03:03:44.955Z,9.90
2017-11-29T03:04:44.967Z,9.80
2017-11-29T03:05:44.980Z,9.30
2017-11-29T03:06:44.996Z,9.60
2017-11-29T03:07:45.016Z,10.20
2017-11-29T03:08:45.019Z,9.60
2017-11-29T03:09:45.034Z,9.70
2017-11-29T03:10:45.049Z,10.30
2017-11-29T03:11:45.057Z,9.70
2017-11-29T03:12:45.074Z,9.70
2017-11-29T03:13:45.086Z,9.20
2017-11-29T03:14:45.097Z,9.80
2017-11-29T03:15:45.115Z,9.90
2017-11-29T03:16:45.123Z,10.00
2017-11-29T03:17:45.136Z,9.70
2017-11-29T03:18:45.150Z,10.00
2017-11-29T03:19:45.162Z,9.40
2017-11-29T03:20:45.177Z,9.80
2017-11-29T03:21:45.190Z,9.70
2017-11-29T03:22:45.202Z,9.50
2017-11-29T03:23:45.216Z,10.30
2017-11-29T03:24:45.232Z,9.80
2017-11-29T03:25:45.244Z,10.30
2017-11-29T03:26:45.256Z,11.00
2017-11-29T03:27:45.268Z,10.00
2017-11-29T03:28:45.280Z,10.40
2017-11-29T03:29:45.296Z,9.90
2017-11-29T03:30:45.319Z,9.80
2017-11-29T03:31:45.328Z,10.60
2017-11-29T03:32:45.335Z,10.70
2017-11-29T03:33:45.346Z,11.10
2017-11-29T03:34:45.359Z,10.80
2017-11-29T03:35:45.376Z,10.70
2017-11-29T03:36:45.389Z,10.80
2017-11-29T03:37:45.404Z,11.80
2017-11-29T03:38:45.412Z,11.40
2017-11-29T03:39:45.427Z,10.90
2017-11-29T03:40:45.440Z,11.50
2017-11-29T03:41:45.456Z,11.10
2017-11-29T03:42:45.471Z,11.60
2017-11-29T03:43:45.480Z,11.60
2017-11-29T03:44:45.495Z,11.10
2017-11-29T03:45:45.514Z,12.10
2017-11-29T03:46:45.520Z,11.90
2017-11-29T03:47:45.534Z,11.80
2017-11-29T03:48:45.548Z,10.70
2017-11-29T03:49:45.560Z,11.60
2017-11-29T03:50:45.582Z,11.60
2017-11-29T03:51:45.590Z,11.40
2017-11-29T03:52:45.617Z,11.50
2017-11-29T03:53:45.612Z,10.90
2017-11-29T03:54:45.625Z,11.10
2017-11-29T03:55:45.641Z,11.90
2017-11-29T03:56:45.654Z,11.60
2017-11-29T03:57:45.665Z,11.90
2017-11-29T03:58:45.680Z,11.40
2017-11-29T03:59:45.697Z,11.90
2017-11-29T04:00:45.707Z,12.20
2017-11-29T04:01:45.719Z,12.10
2017-11-29T04:02:45.731Z,12.50
2017-11-29T04:03:45.744Z,11.30
2017-11-29T04:04:45.759Z,11.90
2017-11-29T04:05:45.773Z,12.40
2017-11-29T04:06:45.788Z,12.50
2017-11-29T04:07:45.803Z,11.60
2017-11-29T04:08:45.813Z,11.70
2017-11-29T04:09:45.826Z,11.70
2017-11-29T04:10:45.838Z,12.30
2017-11-29T04:11:45.852Z,11.70
2017-11-29T04:12:45.867Z,11.80
2017-11-29T04:13:45.880Z,12.20
2017-11-29T04:14:45.889Z,11.90
2017-11-29T04:15:45.902Z,12.60
2017-11-29T04:16:45.918Z,13.80
2017-11-29T04:17:45.931Z,12.70
2017-11-29T04:18:45.949Z,12.20
2017-11-29T04:19:45.958Z,12.90
2017-11-29T04:20:45.979Z,13.20
2017-11-29T04:21:45.983Z,12.30
2017-11-29T04:22:46.001Z,13.00
2017-11-29T04:23:46.010Z,12.40
2017-11-29T04:24:46.023Z,12.80
2017-11-29T04:25:46.039Z,12.90
2017-11-29T04:26:46.048Z,12.80
2017-11-29T04:27:46.063Z,12.10
2017-11-29T04:28:46.075Z,12.50
2017-11-29T04:29:46.087Z,13.20
2017-11-29T04:30:46.107Z,13.00
2017-11-29T04:31:46.140Z,13.70
2017-11-29T04:32:46.126Z,13.60
2017-11-29T04:33:46.143Z,13.80
2017-11-29T04:34:46.160Z,14.00
2017-11-29T04:35:46.175Z,14.30
2017-11-29T04:36:46.181Z,13.90
2017-11-29T04:37:46.191Z,13.50
2017-11-29T04:38:46.204Z,13.70
2017-11-29T04:39:46.230Z,13.90
2017-11-29T04:40:46.236Z,13.60
2017-11-29T04:41:46.247Z,14.70
2017-11-29T04:42:46.258Z,13.90
2017-11-29T04:43:46.272Z,14.00
2017-11-29T04:44:46.283Z,14.70
2017-11-29T04:45:46.301Z,14.30
2017-11-29T04:46:46.310Z,14.00
2017-11-29T04:47:46.328Z,14.90
2017-11-29T04:48:46.334Z,14.20
2017-11-29T04:49:46.349Z,14.90
2017-11-29T04:50:46.363Z,15.50
2017-11-29T04:51:46.376Z,15.10
2017-11-29T04:52:46.393Z,15.40
2017-11-29T04:53:46.402Z,14.30
2017-11-29T04:54:46.419Z,14.30
2017-11-29T04:55:46.430Z,15.30
2017-11-29T04:56:46.443Z,15.60
2017-11-29T04:57:46.466Z,14.60
2017-11-29T04:58:46.474Z,15.30
2017-11-29T04:59:46.483Z,14.20
2017-11-29T05:00:46.495Z,16.00
2017-11-29T05:01:46.510Z,41.90
2017-11-29T05:02:46.520Z,16.20
2017-11-29T05:03:46.535Z,15.10
2017-11-29T05:04:46.548Z,14.90
2017-11-29T05:05:46.565Z,16.20
2017-11-29T05:06:46.574Z,15.50
2017-11-29T05:07:46.584Z,15.80
2017-11-29T05:08:46.604Z,14.10
2017-11-29T05:09:46.615Z,16.10
2017-11-29T05:10:46.630Z,16.70
2017-11-29T05:11:46.645Z,16.40
2017-11-29T05:12:46.658Z,16.00
2017-11-29T05:13:46.673Z,15.50
2017-11-29T05:14:46.695Z,15.40
2017-11-29T05:15:46.700Z,16.10
2017-11-29T05:16:46.708Z,14.90
2017-11-29T05:17:46.726Z,15.60
2017-11-29T05:18:46.737Z,15.20
2017-11-29T05:19:46.749Z,16.40
2017-11-29T05:20:46.763Z,15.90
2017-11-29T05:21:46.780Z,16.40
2017-11-29T05:22:46.789Z,15.70
2017-11-29T05:23:46.803Z,16.70
2017-11-29T05:24:46.816Z,16.50
2017-11-29T05:25:46.829Z,16.90
2017-11-29T05:26:46.879Z,16.50
2017-11-29T05:27:46.856Z,16.60
2017-11-29T05:28:46.876Z,16.10
2017-11-29T05:29:46.884Z,16.10
2017-11-29T05:30:46.897Z,16.70
2017-11-29T05:31:46.912Z,15.60
2017-11-29T05:32:46.927Z,16.00
2017-11-29T05:33:46.952Z,16.40
2017-11-29T05:34:46.965Z,16.30
2017-11-29T05:35:46.965Z,16.60
2017-11-29T05:36:46.978Z,16.60
2017-11-29T05:37:46.997Z,17.20
2017-11-29T05:38:47.009Z,16.10
2017-11-29T05:39:47.039Z,16.20
2017-11-29T05:40:47.030Z,16.60
2017-11-29T05:41:47.046Z,15.80
2017-11-29T05:42:47.058Z,16.30
2017-11-29T05:43:47.079Z,17.40
2017-11-29T05:44:47.090Z,16.60
2017-11-29T05:45:47.099Z,16.60
2017-11-29T05:46:47.112Z,16.50
2017-11-29T05:47:47.129Z,16.50
2017-11-29T05:48:47.142Z,16.70
2017-11-29T05:49:47.161Z,16.40
2017-11-29T05:50:47.190Z,17.00
2017-11-29T05:51:47.183Z,16.40
2017-11-29T05:52:47.197Z,16.60
2017-11-29T05:53:47.208Z,15.90
2017-11-29T05:54:47.223Z,17.20
2017-11-29T05:55:47.234Z,16.40
2017-11-29T05:56:47.253Z,16.00
2017-11-29T05:57:47.264Z,17.50
2017-11-29T05:58:47.274Z,16.10
2017-11-29T05:59:47.287Z,17.30
2017-11-29T06:00:47.299Z,16.30
2017-11-29T06:01:47.322Z,16.90
2017-11-29T06:02:47.326Z,16.90
2017-11-29T06:03:47.342Z,16.90
2017-11-29T06:04:47.352Z,16.90
2017-11-29T06:05:47.369Z,17.70
2017-11-29T06:06:47.380Z,17.30
2017-11-29T06:07:47.394Z,17.00
2017-11-29T06:08:47.407Z,17.70
2017-11-29T06:09:47.426Z,17.10
2017-11-29T06:10:47.438Z,17.10
2017-11-29T06:11:47.447Z,17.40
2017-11-29T06:12:47.460Z,16.40
2017-11-29T06:13:47.473Z,17.60
2017-11-29T06:14:47.487Z,17.50
2017-11-29T06:15:47.504Z,17.70
2017-11-29T06:16:47.516Z,17.50
2017-11-29T06:17:47.539Z,17.30
2017-11-29T06:18:47.542Z,18.40
2017-11-29T06:19:47.559Z,17.10
2017-11-29T06:20:47.571Z,17.40
2017-11-29T06:21:47.588Z,18.00
2017-11-29T06:22:47.598Z,18.10
2017-11-29T06:23:47.609Z,18.00
2017-11-29T06:24:47.621Z,18.50
2017-11-29T06:25:47.636Z,18.20
2017-11-29T06:26:47.651Z,18.50
2017-11-29T06:27:47.670Z,17.50
2017-11-29T06:28:47.676Z,17.70
2017-11-29T06:29:47.689Z,17.60
2017-11-29T06:30:47.754Z,17.70
2017-11-29T06:31:47.716Z,18.60
2017-11-29T06:32:47.733Z,18.50
2017-11-29T06:33:47.753Z,19.10
2017-11-29T06:34:47.763Z,18.60
2017-11-29T06:35:47.773Z,17.40
2017-11-29T06:36:47.788Z,17.00
2017-11-29T06:37:47.802Z,17.70
2017-11-29T06:38:47.813Z,18.20
2017-11-29T06:39:47.826Z,18.10
2017-11-29T06:40:47.843Z,18.40
2017-11-29T06:41:47.853Z,17.40
2017-11-29T06:42:47.867Z,18.20
2017-11-29T06:43:47.898Z,17.70
2017-11-29T06:44:47.895Z,17.50
2017-11-29T06:45:47.910Z,18.40
2017-11-29T06:46:47.923Z,19.30
2017-11-29T06:47:47.942Z,18.30
2017-11-29T06:48:47.985Z,18.00
2017-11-29T06:49:47.962Z,17.80
2017-11-29T06:50:47.983Z,18.60
2017-11-29T06:51:47.989Z,18.20
2017-11-29T06:52:48.012Z,19.70
2017-11-29T06:53:48.021Z,18.20
2017-11-29T06:54:48.037Z,18.20
2017-11-29T06:55:48.048Z,18.20
2017-11-29T06:56:48.060Z,17.50
2017-11-29T06:57:48.076Z,18.70
2017-11-29T06:58:48.085Z,18.60
2017-11-29T06:59:48.111Z,18.20
2017-11-29T07:00:48.113Z,17.60
2017-11-29T07:01:48.130Z,18.40
2017-11-29T07:02:48.140Z,17.80
2017-11-29T07:03:48.155Z,18.90
2017-11-29T07:04:48.167Z,18.80
2017-11-29T07:05:48.184Z,18.20
2017-11-29T07:06:48.194Z,18.70
2017-11-29T07:07:48.207Z,19.00
2017-11-29T07:08:48.223Z,17.80
2017-11-29T07:09:48.239Z,18.30
2017-11-29T07:10:48.248Z,19.00
2017-11-29T07:11:48.262Z,18.10
2017-11-29T07:12:48.276Z,18.20
2017-11-29T07:13:48.289Z,19.50
2017-11-29T07:14:48.307Z,18.30
2017-11-29T07:15:48.318Z,18.90
2017-11-29T07:16:48.329Z,18.80
2017-11-29T07:17:48.342Z,18.00
2017-11-29T07:18:48.355Z,20.50
2017-11-29T07:19:48.369Z,18.70
2017-11-29T07:20:48.383Z,18.70
2017-11-29T07:21:48.405Z,19.00
2017-11-29T07:22:48.412Z,18.10
2017-11-29T07:23:48.437Z,18.20
2017-11-29T07:24:48.442Z,18.90
2017-11-29T07:25:48.452Z,18.70
2017-11-29T07:26:48.466Z,18.30
2017-11-29T07:27:48.484Z,18.90
2017-11-29T07:28:48.491Z,19.20
2017-11-29T07:29:48.503Z,18.80
2017-11-29T07:30:48.518Z,19.40
2017-11-29T07:31:48.529Z,18.30
2017-11-29T07:32:48.543Z,19.20
2017-11-29T07:33:48.561Z,18.80
2017-11-29T07:34:48.571Z,19.20
2017-11-29T07:35:48.588Z,19.10
2017-11-29T07:36:48.598Z,20.40
2017-11-29T07:37:48.612Z,19.00
2017-11-29T07:38:48.622Z,19.10
2017-11-29T07:39:48.641Z,18.70
2017-11-29T07:40:48.653Z,18.40
2017-11-29T07:41:48.665Z,19.90
2017-11-29T07:42:48.681Z,20.30
2017-11-29T07:43:48.681Z,20.40
2017-11-29T07:44:48.688Z,19.50
2017-11-29T07:45:48.708Z,18.80
2017-11-29T07:46:48.717Z,18.70
2017-11-29T07:47:48.731Z,19.80
2017-11-29T07:48:48.760Z,18.40
2017-11-29T07:49:48.774Z,19.30
2017-11-29T07:50:48.792Z,19.50
2017-11-29T07:51:48.801Z,18.90
2017-11-29T07:52:48.842Z,18.80
2017-11-29T07:53:48.826Z,18.90
2017-11-29T07:54:48.839Z,18.60
2017-11-29T07:55:48.852Z,18.30
2017-11-29T07:56:48.877Z,18.90
2017-11-29T07:57:48.880Z,18.90
2017-11-29T07:58:48.893Z,18.30
2017-11-29T07:59:48.907Z,19.20
2017-11-29T08:00:48.923Z,19.80
2017-11-29T08:01:48.937Z,19.20
2017-11-29T08:02:48.948Z,19.30
2017-11-29T08:03:48.964Z,17.70
2017-11-29T08:04:48.975Z,19.40
2017-11-29T08:05:48.990Z,18.40
2017-11-29T08:06:49.006Z,18.10
2017-11-29T08:07:49.018Z,18.30
2017-11-29T08:08:49.030Z,18.30
2017-11-29T08:09:49.042Z,18.70
2017-11-29T08:10:49.058Z,17.70
2017-11-29T08:11:49.076Z,17.90
2017-11-29T08:12:49.085Z,19.00
2017-11-29T08:13:49.111Z,19.50
2017-11-29T08:14:49.117Z,18.40
2017-11-29T08:15:49.128Z,19.40
2017-11-29T08:16:49.145Z,18.80
2017-11-29T08:17:49.157Z,19.20
2017-11-29T08:18:49.167Z,17.50
2017-11-29T08:19:49.182Z,18.60
2017-11-29T08:20:49.243Z,17.60
2017-11-29T08:21:49.211Z,17.40
2017-11-29T08:22:49.226Z,18.00
2017-11-29T08:23:49.234Z,18.10
2017-11-29T08:24:49.258Z,17.00
2017-11-29T08:25:49.266Z,17.60
2017-11-29T08:26:49.329Z,18.00
2017-11-29T08:27:49.295Z,18.80
2017-11-29T08:28:49.307Z,17.40
2017-11-29T08:29:49.320Z,17.70
2017-11-29T08:30:49.342Z,17.30
2017-11-29T08:31:49.354Z,18.00
2017-11-29T08:32:49.366Z,17.40
2017-11-29T08:33:49.380Z,17.00
2017-11-29T08:34:49.394Z,16.30
2017-11-29T08:35:49.405Z,17.40
2017-11-29T08:36:49.416Z,16.10
2017-11-29T08:37:49.449Z,16.90
2017-11-29T08:38:49.448Z,33.00
2017-11-29T08:39:49.481Z,75.60
2017-11-29T08:40:49.475Z,35.70
2017-11-29T08:41:49.490Z,17.30
2017-11-29T08:42:49.512Z,16.70
2017-11-29T08:43:49.520Z,16.80
2017-11-29T08:44:49.529Z,18.10
2017-11-29T08:45:49.548Z,17.30
2017-11-29T08:46:49.567Z,17.90
2017-11-29T08:47:49.575Z,20.20
2017-11-29T08:48:49.586Z,17.10
2017-11-29T08:49:49.599Z,16.60
2017-11-29T08:50:49.616Z,16.10
2017-11-29T08:51:49.627Z,16.40
2017-11-29T08:52:49.641Z,15.40
2017-11-29T08:53:49.660Z,15.20
2017-11-29T08:54:49.671Z,15.40
2017-11-29T08:55:49.685Z,16.10
2017-11-29T08:56:49.698Z,16.30
2017-11-29T08:57:49.712Z,16.60
2017-11-29T08:58:49.728Z,15.80
2017-11-29T08:59:49.743Z,15.90
2017-11-29T09:00:49.753Z,15.90
2017-11-29T09:01:49.770Z,16.30
2017-11-29T09:02:49.783Z,16.50
2017-11-29T09:03:49.798Z,15.70
2017-11-29T09:04:49.821Z,16.40
2017-11-29T09:05:49.828Z,16.90
2017-11-29T09:06:49.836Z,17.30
2017-11-29T09:07:49.851Z,16.30
2017-11-29T09:08:49.869Z,19.80
2017-11-29T09:09:49.880Z,27.50
2017-11-29T09:10:49.901Z,18.50
2017-11-29T09:11:49.906Z,23.50
2017-11-29T09:12:49.924Z,22.50
2017-11-29T09:13:49.937Z,19.80
2017-11-29T09:14:49.958Z,19.70
2017-11-29T09:15:49.963Z,19.70
2017-11-29T09:16:49.976Z,20.50
2017-11-29T09:17:49.997Z,25.60
2017-11-29T09:18:50.006Z,24.60
2017-11-29T09:19:50.019Z,21.50
2017-11-29T09:20:50.033Z,19.70
2017-11-29T09:21:50.048Z,17.10
2017-11-29T09:22:50.065Z,16.70
2017-11-29T09:23:50.081Z,18.20
2017-11-29T09:24:50.095Z,17.00
2017-11-29T09:25:50.105Z,16.70
2017-11-29T09:26:50.118Z,16.40
2017-11-29T09:27:50.135Z,17.70
2017-11-29T09:28:50.161Z,16.20
2017-11-29T09:29:50.169Z,16.40
2017-11-29T09:30:50.178Z,17.10
2017-11-29T09:31:50.197Z,16.90
2017-11-29T09:32:50.210Z,16.80
2017-11-29T09:33:50.210Z,16.20
2017-11-29T09:34:50.222Z,16.50
2017-11-29T09:35:50.236Z,17.00
2017-11-29T09:36:50.248Z,17.50
2017-11-29T09:37:50.269Z,17.00
2017-11-29T09:38:50.280Z,15.60
2017-11-29T09:39:50.311Z,16.00
2017-11-29T09:40:50.325Z,16.10
2017-11-29T09:41:50.341Z,14.70
2017-11-29T09:42:50.361Z,18.80
2017-11-29T09:43:50.370Z,20.40
2017-11-29T09:44:50.382Z,16.50
2017-11-29T09:45:50.400Z,16.30
2017-11-29T09:46:50.416Z,15.50
2017-11-29T09:47:50.427Z,16.20
2017-11-29T09:48:50.445Z,16.20
2017-11-29T09:49:50.458Z,15.20
2017-11-29T09:50:50.474Z,17.40
2017-11-29T09:51:50.486Z,15.40
2017-11-29T09:52:50.503Z,16.00
2017-11-29T09:53:50.523Z,16.90
2017-11-29T09:54:50.533Z,15.40
2017-11-29T09:55:50.548Z,13.80
2017-11-29T09:56:50.560Z,14.60
2017-11-29T09:57:50.576Z,14.70
2017-11-29T09:58:50.596Z,14.70
2017-11-29T09:59:50.605Z,14.60
2017-11-29T10:00:50.632Z,14.20
2017-11-29T10:01:50.636Z,14.30
2017-11-29T10:02:50.650Z,15.30
2017-11-29T10:03:50.666Z,13.90
2017-11-29T10:04:50.681Z,14.60
2017-11-29T10:05:50.703Z,13.60
2017-11-29T10:06:50.710Z,14.50
2017-11-29T10:07:50.727Z,13.30
2017-11-29T10:08:50.744Z,12.70
2017-11-29T10:09:50.759Z,13.70
2017-11-29T10:10:50.773Z,13.70
2017-11-29T10:11:50.804Z,13.90
2017-11-29T10:12:50.802Z,13.60
2017-11-29T10:13:50.816Z,13.90
2017-11-29T10:14:50.832Z,13.00
2017-11-29T10:15:50.849Z,14.90
2017-11-29T10:16:50.865Z,14.60
2017-11-29T10:17:50.882Z,14.80
2017-11-29T10:18:50.896Z,15.00
2017-11-29T10:19:50.909Z,13.90
2017-11-29T10:20:50.924Z,14.20
2017-11-29T10:21:50.940Z,14.70
2017-11-29T10:22:50.971Z,13.70
2017-11-29T10:23:50.969Z,14.90
2017-11-29T10:24:50.988Z,14.80
2017-11-29T10:25:51.001Z,14.70
2017-11-29T10:26:51.016Z,14.80
2017-11-29T10:27:51.030Z,14.40
2017-11-29T10:28:51.058Z,13.70
2017-11-29T10:29:51.064Z,14.00
2017-11-29T10:30:51.075Z,14.50
2017-11-29T10:31:51.092Z,14.30
2017-11-29T10:32:51.107Z,15.00
2017-11-29T10:33:51.120Z,15.30
2017-11-29T10:34:51.135Z,13.60
2017-11-29T10:35:51.150Z,13.70
2017-11-29T10:36:51.167Z,14.30
2017-11-29T10:37:51.183Z,13.80
2017-11-29T10:38:51.203Z,15.00
2017-11-29T10:39:51.219Z,14.70
2017-11-29T10:40:51.228Z,15.50
2017-11-29T10:41:51.247Z,15.10
2017-11-29T10:42:52.112Z,14.10
2017-11-29T10:43:51.299Z,14.00
2017-11-29T10:44:51.287Z,15.50
2017-11-29T10:45:51.301Z,15.10
2017-11-29T10:46:51.318Z,14.90
2017-11-29T10:47:51.332Z,14.00
2017-11-29T10:48:51.348Z,14.40
2017-11-29T10:49:51.362Z,14.50
2017-11-29T10:50:51.376Z,14.70
2017-11-29T10:51:51.391Z,16.10
2017-11-29T10:52:51.411Z,15.50
2017-11-29T10:53:51.421Z,15.50
2017-11-29T10:54:51.438Z,14.70
2017-11-29T10:55:51.462Z,16.30
2017-11-29T10:56:51.465Z,16.60
2017-11-29T10:57:51.481Z,15.60
2017-11-29T10:58:51.497Z,15.80
2017-11-29T10:59:51.511Z,16.00
2017-11-29T11:00:51.530Z,15.80
2017-11-29T11:01:51.601Z,15.70
2017-11-29T11:02:51.569Z,17.30
2017-11-29T11:03:51.567Z,15.30
2017-11-29T11:04:51.585Z,16.90
2017-11-29T11:05:51.612Z,17.20
2017-11-29T11:06:51.630Z,16.10
2017-11-29T11:07:51.630Z,16.10
2017-11-29T11:08:51.648Z,18.60
2017-11-29T11:09:51.658Z,15.80
2017-11-29T11:10:51.674Z,15.90
2017-11-29T11:11:51.689Z,16.30
2017-11-29T11:12:51.704Z,15.40
2017-11-29T11:13:51.721Z,17.00
2017-11-29T11:14:51.730Z,16.30
2017-11-29T11:15:51.746Z,16.30
2017-11-29T11:16:51.761Z,14.80
2017-11-29T11:17:51.781Z,15.50
2017-11-29T11:18:51.802Z,16.10
2017-11-29T11:19:51.809Z,16.00
2017-11-29T11:20:51.832Z,15.80
2017-11-29T11:21:51.841Z,15.50
2017-11-29T11:22:51.853Z,15.20
2017-11-29T11:23:51.870Z,15.80
2017-11-29T11:24:51.883Z,14.90
2017-11-29T11:25:51.901Z,15.80
2017-11-29T11:26:51.929Z,15.50
2017-11-29T11:27:51.930Z,17.00
2017-11-29T11:28:51.945Z,18.70
2017-11-29T11:29:51.963Z,20.20
2017-11-29T11:30:51.978Z,19.90
2017-11-29T11:31:51.994Z,20.10
2017-11-29T11:32:52.007Z,21.20
2017-11-29T11:33:52.024Z,19.80
2017-11-29T11:34:52.039Z,20.10
2017-11-29T11:35:52.054Z,20.80
2017-11-29T11:36:52.068Z,20.50
2017-11-29T11:37:52.081Z,17.40
2017-11-29T11:38:52.097Z,19.90
2017-11-29T11:39:52.113Z,21.20
2017-11-29T11:40:52.129Z,18.60
2017-11-29T11:41:52.146Z,16.40
2017-11-29T11:42:52.171Z,16.30
2017-11-29T11:43:52.189Z,17.30
2017-11-29T11:44:52.188Z,16.90
2017-11-29T11:45:52.204Z,16.40
2017-11-29T11:46:52.216Z,16.30
2017-11-29T11:47:52.232Z,16.40
2017-11-29T11:48:52.247Z,15.50
2017-11-29T11:49:52.264Z,16.70
2017-11-29T11:50:52.282Z,16.40
2017-11-29T11:51:52.292Z,16.70
2017-11-29T11:52:52.306Z,17.90
2017-11-29T11:53:52.323Z,18.10
2017-11-29T11:54:52.336Z,19.30
2017-11-29T11:55:52.351Z,19.80
2017-11-29T11:56:52.365Z,21.40
2017-11-29T11:57:52.383Z,18.70
2017-11-29T11:58:52.396Z,23.90
2017-11-29T11:59:52.417Z,19.90
2017-11-29T12:00:52.430Z,18.50
2017-11-29T12:01:52.443Z,17.70
2017-11-29T12:02:52.456Z,24.10
2017-11-29T12:03:52.471Z,18.50
2017-11-29T12:04:52.488Z,27.00
2017-11-29T12:05:52.500Z,23.80
2017-11-29T12:06:52.515Z,27.80
2017-11-29T12:07:52.533Z,27.20
2017-11-29T12:08:52.553Z,27.50
2017-11-29T12:09:52.557Z,25.90
2017-11-29T12:10:52.573Z,22.00
2017-11-29T12:11:52.592Z,22.00
2017-11-29T12:12:52.603Z,20.70
2017-11-29T12:13:52.617Z,19.30
2017-11-29T12:14:52.631Z,23.60
2017-11-29T12:15:52.646Z,23.50
2017-11-29T12:16:52.662Z,20.30
2017-11-29T12:17:52.676Z,19.40
2017-11-29T12:18:52.687Z,21.00
2017-11-29T12:19:52.703Z,18.00
2017-11-29T12:20:52.722Z,18.10
2017-11-29T12:21:52.734Z,20.00
2017-11-29T12:22:52.755Z,19.10
2017-11-29T12:23:52.765Z,26.20
2017-11-29T12:24:52.777Z,25.80
2017-11-29T12:25:52.795Z,20.40
2017-11-29T12:26:52.806Z,20.60
2017-11-29T12:27:52.825Z,26.70
2017-11-29T12:28:52.835Z,18.90
2017-11-29T12:29:52.853Z,17.90
2017-11-29T12:30:52.864Z,23.10
2017-11-29T12:31:52.885Z,23.70
2017-11-29T12:32:52.894Z,20.60
2017-11-29T12:33:52.910Z,18.80
2017-11-29T12:34:52.928Z,19.90
2017-11-29T12:35:52.937Z,20.90
2017-11-29T12:36:52.950Z,21.80
2017-11-29T12:37:52.969Z,19.10
2017-11-29T12:38:52.980Z,19.20
2017-11-29T12:39:52.995Z,18.70
2017-11-29T12:40:53.014Z,18.70
2017-11-29T12:41:53.029Z,24.10
2017-11-29T12:42:53.048Z,17.70
2017-11-29T12:43:53.054Z,18.60
2017-11-29T12:44:53.069Z,19.80
2017-11-29T12:45:53.081Z,22.90
2017-11-29T12:46:53.097Z,22.30
2017-11-29T12:47:53.113Z,22.00
2017-11-29T12:48:53.125Z,22.60
2017-11-29T12:49:53.140Z,21.00
2017-11-29T12:50:53.156Z,20.30
2017-11-29T12:51:53.176Z,17.70
2017-11-29T12:52:53.187Z,19.30
2017-11-29T12:53:53.203Z,16.90
2017-11-29T12:54:53.212Z,16.90
2017-11-29T12:55:53.230Z,16.90
2017-11-29T12:56:53.243Z,18.40
2017-11-29T12:57:53.255Z,18.80
2017-11-29T12:58:53.272Z,19.20
2017-11-29T12:59:53.290Z,17.20